2IS1 weather

Proctor Hospital Heliport
Peoria, Illinois, United States

Public forecast

Using degrees Fahrenheit for public forecast. Weather courtesy of forecast.io.

Closest aviation weather report (METAR) to Proctor Hospital Heliport

Closest report is General Wayne A. Downing Peoria International Airport, 6.9 nm (12.7 km) SW. Retrieved 2019/12/13 09:54 UTC (13 minutes ago):

KPIA 130954Z 00000KT 10SM SCT120 02/M03 A2998 RMK AO2 SLP156 T00171033

Closest aviation forecast (TAF) to Proctor Hospital Heliport

Closest forecast is General Wayne A. Downing Peoria International Airport, 6.9 nm (12.7 km) SW. Retrieved 2019/12/13 06:24 UTC (4 hours ago):

TAF KPIA 130520Z 1306/1406 20007KT P6SM OVC080 FM131000 18003KT P6SM BKN090